Time;durP1;ratioP1;P1;durP2;ratioP2;P2;SDS_P1;SDS_P2;PMS_P1;PMS_P2;Temp;Humidity;BMP_temperature;BMP_pressure;BME280_temperature;BME280_humidity;BME280_pressure;Samples;Min_cycle;Max_cycle;Signal;HPM_P1;HPM_P2
2022/07/08 00:01:04;;;;;;;;;;;22.00;48.20;;;;;;5057228;28;19960;-61
2022/07/08 00:03:31;;;;;;;;;;;22.00;48.20;;;;;;5043461;28;19951;-61
2022/07/08 00:05:57;;;;;;;;;;;22.00;48.10;;;;;;5053357;28;19935;-61
2022/07/08 00:08:27;;;;;;;;;;;22.00;48.10;;;;;;5060267;28;19956;-62
2022/07/08 00:10:53;;;;;;;;;;;22.00;48.10;;;;;;5054361;28;19940;-61
2022/07/08 00:13:20;;;;;;;;;;;22.00;48.00;;;;;;5061743;28;20023;-62
2022/07/08 00:15:47;;;;;;;;;;;22.00;48.00;;;;;;5053066;28;19924;-61
2022/07/08 00:18:14;;;;;;;;;;;22.00;47.90;;;;;;5054906;28;19964;-62
2022/07/08 00:20:40;;;;;;;;;;;22.00;47.90;;;;;;5064998;28;20411;-61
2022/07/08 00:23:07;;;;;;;;;;;22.00;47.90;;;;;;5052420;28;20012;-61
2022/07/08 00:25:35;;;;;;;;;;;22.00;47.90;;;;;;5043942;28;19970;-63
2022/07/08 00:28:02;;;;;;;;;;;22.00;47.80;;;;;;5066966;28;20019;-62
2022/07/08 00:30:29;;;;;;;;;;;22.00;47.80;;;;;;5059139;28;19921;-62
2022/07/08 00:32:55;;;;;;;;;;;22.00;47.80;;;;;;5037368;28;19924;-62
2022/07/08 00:35:22;;;;;;;;;;;22.00;47.70;;;;;;5056323;28;19924;-61
2022/07/08 00:37:49;;;;;;;;;;;22.00;47.70;;;;;;5047008;28;19925;-62
2022/07/08 00:40:16;;;;;;;;;;;22.00;47.80;;;;;;5037387;28;19932;-61
2022/07/08 00:42:48;;;;;;;;;;;22.00;47.70;;;;;;5053470;28;19982;-62
2022/07/08 00:45:14;;;;;;;;;;;22.00;47.70;;;;;;5065883;28;19932;-60
2022/07/08 00:47:41;;;;;;;;;;;22.00;47.70;;;;;;5050423;28;19932;-62
2022/07/08 00:50:09;;;;;;;;;;;22.00;47.70;;;;;;5049911;28;19927;-61
2022/07/08 00:52:35;;;;;;;;;;;22.00;47.70;;;;;;5057011;28;19978;-62
2022/07/08 00:55:02;;;;;;;;;;;22.00;47.70;;;;;;5059441;28;19924;-62
2022/07/08 00:57:29;;;;;;;;;;;22.00;47.70;;;;;;5060640;28;19985;-61
2022/07/08 00:59:57;;;;;;;;;;;22.00;47.70;;;;;;5054021;28;19970;-62
2022/07/08 01:02:24;;;;;;;;;;;22.00;47.70;;;;;;5039239;28;19925;-62
2022/07/08 01:04:51;;;;;;;;;;;22.00;47.70;;;;;;5057355;28;19991;-61
2022/07/08 01:07:17;;;;;;;;;;;22.00;47.70;;;;;;5041425;28;19931;-61
2022/07/08 01:09:44;;;;;;;;;;;22.00;47.70;;;;;;5045212;28;19944;-62
2022/07/08 01:12:11;;;;;;;;;;;22.00;47.70;;;;;;5054689;28;19928;-62
2022/07/08 01:14:38;;;;;;;;;;;22.00;47.60;;;;;;5064576;28;19920;-62
2022/07/08 01:17:06;;;;;;;;;;;22.00;47.60;;;;;;5068378;28;20007;-61
2022/07/08 01:19:33;;;;;;;;;;;22.00;47.70;;;;;;5059467;28;20370;-63
2022/07/08 01:22:01;;;;;;;;;;;22.00;47.60;;;;;;5050429;28;19931;-62
2022/07/08 01:24:28;;;;;;;;;;;22.00;47.60;;;;;;5051618;28;19925;-62
2022/07/08 01:26:54;;;;;;;;;;;22.00;47.60;;;;;;5054085;28;20017;-62
2022/07/08 01:29:21;;;;;;;;;;;22.00;47.60;;;;;;5047824;28;19924;-61
2022/07/08 01:31:51;;;;;;;;;;;22.00;47.60;;;;;;5053864;28;19925;-61
2022/07/08 01:34:18;;;;;;;;;;;22.00;47.50;;;;;;5037146;28;20298;-61
2022/07/08 01:36:45;;;;;;;;;;;22.00;47.50;;;;;;5047709;28;19924;-61
2022/07/08 01:39:13;;;;;;;;;;;22.00;47.50;;;;;;5061988;28;19943;-62
2022/07/08 01:41:39;;;;;;;;;;;22.00;47.50;;;;;;5037906;28;19925;-61
2022/07/08 01:44:07;;;;;;;;;;;22.00;47.50;;;;;;5054590;28;20317;-62
2022/07/08 01:46:33;;;;;;;;;;;22.00;47.40;;;;;;5053507;28;20358;-61
2022/07/08 01:49:00;;;;;;;;;;;22.00;47.40;;;;;;5050192;28;20374;-62
2022/07/08 01:51:27;;;;;;;;;;;22.00;47.40;;;;;;5061137;28;19920;-62
2022/07/08 01:53:54;;;;;;;;;;;22.00;47.30;;;;;;5051471;28;19943;-61
2022/07/08 01:56:22;;;;;;;;;;;22.00;47.30;;;;;;5053094;28;19969;-62
2022/07/08 01:58:49;;;;;;;;;;;22.00;47.30;;;;;;5049501;28;20362;-62
2022/07/08 02:01:16;;;;;;;;;;;22.00;47.20;;;;;;5043874;28;19921;-61
2022/07/08 02:03:42;;;;;;;;;;;22.00;47.20;;;;;;5068852;28;19924;-61
2022/07/08 02:06:09;;;;;;;;;;;21.90;47.10;;;;;;5052744;28;19945;-61
2022/07/08 02:08:36;;;;;;;;;;;21.90;47.10;;;;;;5047627;28;20039;-61
2022/07/08 02:13:48;;;;;;;;;;;21.90;47.00;;;;;;5054972;28;20561;-61
2022/07/08 02:16:15;;;;;;;;;;;22.00;47.10;;;;;;5060479;28;19952;-62
2022/07/08 02:18:42;;;;;;;;;;;21.90;47.00;;;;;;5048040;28;19921;-61
2022/07/08 02:21:08;;;;;;;;;;;22.00;47.00;;;;;;5059882;28;19966;-61
2022/07/08 02:23:35;;;;;;;;;;;21.90;47.00;;;;;;5043720;28;20029;-62
2022/07/08 02:26:02;;;;;;;;;;;21.90;47.00;;;;;;5057121;28;19986;-61
2022/07/08 02:28:29;;;;;;;;;;;21.90;47.00;;;;;;5043827;28;19927;-62
2022/07/08 02:30:57;;;;;;;;;;;21.90;47.00;;;;;;5039242;28;19966;-61
2022/07/08 02:33:24;;;;;;;;;;;21.90;47.00;;;;;;5052118;28;19986;-61
2022/07/08 02:35:50;;;;;;;;;;;21.90;46.90;;;;;;5059586;28;19920;-61
2022/07/08 02:38:17;;;;;;;;;;;21.90;46.90;;;;;;5049346;28;19921;-61
2022/07/08 02:40:44;;;;;;;;;;;21.90;46.90;;;;;;5063638;28;20325;-63
2022/07/08 02:43:12;;;;;;;;;;;21.90;46.90;;;;;;5062332;28;21255;-62
2022/07/08 02:45:39;;;;;;;;;;;21.90;46.90;;;;;;5056222;28;19920;-62
2022/07/08 02:48:08;;;;;;;;;;;21.90;46.90;;;;;;5062256;28;19947;-61
2022/07/08 02:50:34;;;;;;;;;;;21.90;46.90;;;;;;5049224;28;20373;-62
2022/07/08 02:53:01;;;;;;;;;;;21.90;46.90;;;;;;5042346;28;20405;-62
2022/07/08 02:55:28;;;;;;;;;;;21.90;46.90;;;;;;5064829;28;19924;-61
2022/07/08 02:57:55;;;;;;;;;;;21.90;46.90;;;;;;5054124;28;19927;-61
2022/07/08 03:00:22;;;;;;;;;;;21.90;46.90;;;;;;5040945;28;19928;-61
2022/07/08 03:02:49;;;;;;;;;;;21.90;46.90;;;;;;5045048;28;19995;-61
2022/07/08 03:05:17;;;;;;;;;;;21.90;46.90;;;;;;5036340;28;20308;-62
2022/07/08 03:07:44;;;;;;;;;;;21.90;47.00;;;;;;5046832;28;20011;-61
2022/07/08 03:10:11;;;;;;;;;;;21.90;46.90;;;;;;5035323;28;19967;-61
2022/07/08 03:12:38;;;;;;;;;;;21.90;47.00;;;;;;5057901;28;19927;-62
2022/07/08 03:15:05;;;;;;;;;;;21.90;47.00;;;;;;5052320;28;19932;-61
2022/07/08 03:17:31;;;;;;;;;;;21.90;47.00;;;;;;5050929;28;19928;-61
2022/07/08 03:19:58;;;;;;;;;;;21.90;47.00;;;;;;5050074;28;20307;-62
2022/07/08 03:22:26;;;;;;;;;;;21.90;47.00;;;;;;5039277;28;20644;-62
2022/07/08 03:24:53;;;;;;;;;;;21.90;47.00;;;;;;5042291;28;20405;-62
2022/07/08 03:27:20;;;;;;;;;;;21.90;47.00;;;;;;5060577;28;20415;-62
2022/07/08 03:29:46;;;;;;;;;;;21.90;47.00;;;;;;5065649;28;20411;-60
2022/07/08 03:32:13;;;;;;;;;;;21.90;47.00;;;;;;5059757;28;19928;-61
2022/07/08 03:34:40;;;;;;;;;;;21.90;47.00;;;;;;5044193;28;19970;-61
2022/07/08 03:37:06;;;;;;;;;;;21.90;47.00;;;;;;5039350;28;20021;-61
2022/07/08 03:39:35;;;;;;;;;;;21.90;47.00;;;;;;5053050;28;19960;-62
2022/07/08 03:42:00;;;;;;;;;;;21.90;47.00;;;;;;5050765;28;19978;-60
2022/07/08 03:44:27;;;;;;;;;;;22.00;47.20;;;;;;5056825;28;19921;-61
2022/07/08 03:46:54;;;;;;;;;;;21.90;47.00;;;;;;5049445;28;19974;-62
2022/07/08 03:49:20;;;;;;;;;;;21.90;47.00;;;;;;5054483;28;20018;-61
2022/07/08 03:51:47;;;;;;;;;;;21.90;47.00;;;;;;5061891;28;20427;-61
2022/07/08 03:54:14;;;;;;;;;;;21.90;47.10;;;;;;5038008;28;20370;-61
2022/07/08 03:56:42;;;;;;;;;;;21.90;47.00;;;;;;5063169;28;19921;-61
2022/07/08 03:59:09;;;;;;;;;;;21.90;47.00;;;;;;5058411;28;19974;-61
2022/07/08 04:01:36;;;;;;;;;;;21.90;47.00;;;;;;5068832;28;20335;-61
2022/07/08 04:04:02;;;;;;;;;;;21.90;47.00;;;;;;5053521;28;19921;-61
2022/07/08 04:06:29;;;;;;;;;;;21.90;47.00;;;;;;5065091;28;19931;-63
2022/07/08 04:08:56;;;;;;;;;;;21.90;47.70;;;;;;5050682;28;19931;-61
2022/07/08 04:11:23;;;;;;;;;;;21.90;47.10;;;;;;5045063;28;20265;-61
2022/07/08 04:13:51;;;;;;;;;;;21.90;47.10;;;;;;5040374;28;19928;-61
2022/07/08 04:16:18;;;;;;;;;;;21.90;47.00;;;;;;5060497;28;19920;-61
2022/07/08 04:18:44;;;;;;;;;;;21.90;47.10;;;;;;5040374;28;19972;-61
2022/07/08 04:21:11;;;;;;;;;;;21.90;47.10;;;;;;5069089;28;19921;-62
2022/07/08 04:23:38;;;;;;;;;;;21.90;47.10;;;;;;5056315;28;19933;-61
2022/07/08 04:26:05;;;;;;;;;;;21.90;47.10;;;;;;5059775;28;19920;-62
2022/07/08 04:28:31;;;;;;;;;;;21.90;47.10;;;;;;5060918;28;19921;-62
2022/07/08 04:31:00;;;;;;;;;;;21.90;47.10;;;;;;5066233;28;19982;-61
2022/07/08 04:33:26;;;;;;;;;;;21.90;47.70;;;;;;5041417;28;19921;-61
2022/07/08 04:35:53;;;;;;;;;;;21.90;47.10;;;;;;5057132;28;20366;-60
2022/07/08 04:38:20;;;;;;;;;;;21.90;47.10;;;;;;5066683;28;20247;-61
2022/07/08 04:40:47;;;;;;;;;;;21.90;47.10;;;;;;5036368;28;19955;-61
2022/07/08 04:43:14;;;;;;;;;;;21.90;47.10;;;;;;5061594;28;19920;-64
2022/07/08 04:45:40;;;;;;;;;;;21.90;47.10;;;;;;5071552;28;20278;-61
2022/07/08 04:48:08;;;;;;;;;;;21.90;47.00;;;;;;5067502;28;19928;-62
2022/07/08 04:50:35;;;;;;;;;;;21.90;47.00;;;;;;5050468;28;19968;-60
2022/07/08 04:53:02;;;;;;;;;;;21.90;47.10;;;;;;5039736;28;19974;-61
2022/07/08 04:55:29;;;;;;;;;;;21.90;46.50;;;;;;5051735;28;19920;-63
2022/07/08 04:57:56;;;;;;;;;;;21.90;47.00;;;;;;5055410;28;19927;-61
2022/07/08 05:00:23;;;;;;;;;;;21.90;47.00;;;;;;5050316;28;19928;-62
2022/07/08 05:02:49;;;;;;;;;;;21.90;47.00;;;;;;5040759;28;20274;-62
2022/07/08 05:05:18;;;;;;;;;;;21.90;47.00;;;;;;5057339;28;20029;-61
2022/07/08 05:07:45;;;;;;;;;;;21.90;47.00;;;;;;5042424;28;20447;-61
2022/07/08 05:10:12;;;;;;;;;;;21.90;47.00;;;;;;5060438;28;19962;-62
2022/07/08 05:12:39;;;;;;;;;;;21.90;47.00;;;;;;5061078;28;19920;-61
2022/07/08 05:15:06;;;;;;;;;;;21.90;47.00;;;;;;5056483;28;19936;-62
2022/07/08 05:17:32;;;;;;;;;;;21.90;47.00;;;;;;5062070;28;19924;-61
2022/07/08 05:19:59;;;;;;;;;;;21.90;47.00;;;;;;5070938;28;20422;-62
2022/07/08 05:22:27;;;;;;;;;;;21.90;47.00;;;;;;5059449;28;20373;-62
2022/07/08 05:24:54;;;;;;;;;;;21.90;47.00;;;;;;5067577;28;19998;-61
2022/07/08 05:27:21;;;;;;;;;;;21.90;47.00;;;;;;5045447;28;19924;-62
2022/07/08 05:29:48;;;;;;;;;;;21.90;47.00;;;;;;5062218;28;20396;-62
2022/07/08 05:32:14;;;;;;;;;;;21.90;47.00;;;;;;5063014;28;19921;-61
2022/07/08 05:34:44;;;;;;;;;;;21.90;47.00;;;;;;5051212;28;19971;-61
2022/07/08 05:37:10;;;;;;;;;;;21.90;47.00;;;;;;5055247;28;20352;-60
2022/07/08 05:39:39;;;;;;;;;;;21.90;47.00;;;;;;5053311;28;20433;-61
2022/07/08 05:42:07;;;;;;;;;;;21.90;47.00;;;;;;5057245;28;19920;-61
2022/07/08 05:44:33;;;;;;;;;;;21.90;47.00;;;;;;5058612;28;20043;-61
2022/07/08 05:47:00;;;;;;;;;;;21.90;47.00;;;;;;5061441;28;19925;-62
2022/07/08 05:49:27;;;;;;;;;;;21.90;47.00;;;;;;5050424;28;19983;-62
2022/07/08 05:51:54;;;;;;;;;;;21.90;47.00;;;;;;5065532;28;19932;-61
2022/07/08 05:54:21;;;;;;;;;;;21.90;47.00;;;;;;5047969;28;19928;-61
2022/07/08 05:56:49;;;;;;;;;;;21.90;47.00;;;;;;5054293;28;20015;-61
2022/07/08 05:59:16;;;;;;;;;;;21.90;47.00;;;;;;5061897;28;19960;-62
2022/07/08 06:01:42;;;;;;;;;;;21.90;47.00;;;;;;5061683;28;19921;-62
2022/07/08 06:04:09;;;;;;;;;;;21.90;47.00;;;;;;5052618;28;19971;-61
2022/07/08 06:06:36;;;;;;;;;;;21.90;47.00;;;;;;5050338;28;19929;-62
2022/07/08 06:09:03;;;;;;;;;;;21.90;47.00;;;;;;5059804;28;19925;-61
2022/07/08 06:11:30;;;;;;;;;;;21.90;47.00;;;;;;5059949;28;19925;-62
2022/07/08 06:13:59;;;;;;;;;;;21.90;47.00;;;;;;5045094;28;19928;-61
2022/07/08 06:16:25;;;;;;;;;;;21.90;47.00;;;;;;5055053;28;19931;-61
2022/07/08 06:18:52;;;;;;;;;;;21.90;47.00;;;;;;5058541;28;19942;-61
2022/07/08 06:21:19;;;;;;;;;;;21.90;47.00;;;;;;5046758;28;19967;-61
2022/07/08 06:23:46;;;;;;;;;;;21.90;47.10;;;;;;5063387;28;19963;-62
2022/07/08 06:26:12;;;;;;;;;;;21.90;47.00;;;;;;5054477;28;19952;-62
2022/07/08 06:28:39;;;;;;;;;;;21.90;47.10;;;;;;5062451;28;19945;-61
2022/07/08 06:31:07;;;;;;;;;;;21.90;47.10;;;;;;5054723;28;20414;-62
2022/07/08 06:33:34;;;;;;;;;;;21.90;47.10;;;;;;5052818;28;19933;-62
2022/07/08 06:36:03;;;;;;;;;;;21.90;47.10;;;;;;5053488;28;19920;-61
2022/07/08 06:38:29;;;;;;;;;;;21.90;47.10;;;;;;5037072;28;20183;-62
2022/07/08 06:40:56;;;;;;;;;;;21.90;47.10;;;;;;5043337;28;19955;-61
2022/07/08 06:43:23;;;;;;;;;;;21.90;47.10;;;;;;5043013;28;19920;-60
2022/07/08 06:45:50;;;;;;;;;;;21.90;47.10;;;;;;5060618;28;19946;-60
2022/07/08 06:48:18;;;;;;;;;;;21.90;47.10;;;;;;5063437;28;19920;-61
2022/07/08 06:50:45;;;;;;;;;;;21.90;47.70;;;;;;5055600;28;19991;-60
2022/07/08 06:53:12;;;;;;;;;;;21.90;47.20;;;;;;5056200;28;19943;-60
2022/07/08 06:55:39;;;;;;;;;;;21.90;47.20;;;;;;5048823;28;20415;-60
2022/07/08 06:58:05;;;;;;;;;;;21.90;47.20;;;;;;5052955;28;19920;-59
2022/07/08 07:00:32;;;;;;;;;;;21.90;47.20;;;;;;5051698;28;19929;-59
2022/07/08 07:02:59;;;;;;;;;;;21.90;47.30;;;;;;5055566;28;19921;-60
2022/07/08 07:05:27;;;;;;;;;;;21.90;47.30;;;;;;5062714;28;20251;-64
2022/07/08 07:07:54;;;;;;;;;;;21.90;47.30;;;;;;5051542;28;20310;-63
2022/07/08 07:10:20;;;;;;;;;;;21.90;47.30;;;;;;5056604;28;19921;-64
2022/07/08 07:12:47;;;;;;;;;;;21.90;47.30;;;;;;5046307;28;19927;-63
2022/07/08 07:15:14;;;;;;;;;;;21.90;47.30;;;;;;5066782;28;19924;-62
2022/07/08 07:17:42;;;;;;;;;;;21.90;47.40;;;;;;5066913;28;19982;-63
2022/07/08 07:20:10;;;;;;;;;;;21.90;47.40;;;;;;5050479;28;19921;-63
2022/07/08 07:22:38;;;;;;;;;;;21.90;47.40;;;;;;5054583;28;20054;-63
2022/07/08 07:25:05;;;;;;;;;;;21.90;47.40;;;;;;5071655;28;19921;-63
2022/07/08 07:27:32;;;;;;;;;;;21.90;47.40;;;;;;5069899;28;19932;-63
2022/07/08 07:29:59;;;;;;;;;;;21.90;47.40;;;;;;5070153;28;20016;-63
2022/07/08 07:32:25;;;;;;;;;;;21.90;47.40;;;;;;5071489;28;20365;-64
2022/07/08 07:34:52;;;;;;;;;;;21.90;47.40;;;;;;5039467;28;20001;-63
2022/07/08 07:37:19;;;;;;;;;;;21.90;48.00;;;;;;5043742;28;19921;-64
2022/07/08 07:39:47;;;;;;;;;;;21.90;47.40;;;;;;5047739;28;19920;-63
2022/07/08 07:42:14;;;;;;;;;;;21.90;47.40;;;;;;5068909;28;19920;-63
2022/07/08 07:44:41;;;;;;;;;;;21.90;47.50;;;;;;5050960;28;19928;-64
2022/07/08 07:47:07;;;;;;;;;;;21.90;47.50;;;;;;5054236;28;20059;-63
2022/07/08 07:49:34;;;;;;;;;;;21.90;47.50;;;;;;5066718;28;19925;-59
2022/07/08 07:52:01;;;;;;;;;;;21.90;47.50;;;;;;5068066;28;19956;-59
2022/07/08 07:54:27;;;;;;;;;;;21.90;47.50;;;;;;5053864;28;19970;-60
2022/07/08 07:56:56;;;;;;;;;;;21.90;47.50;;;;;;5064202;28;20266;-59
2022/07/08 07:59:22;;;;;;;;;;;21.90;47.50;;;;;;5055101;28;20034;-59
2022/07/08 08:01:49;;;;;;;;;;;21.90;47.50;;;;;;5072295;28;20320;-59
2022/07/08 08:04:17;;;;;;;;;;;21.90;47.50;;;;;;5053796;28;20483;-59
2022/07/08 08:06:44;;;;;;;;;;;21.90;47.50;;;;;;5053298;28;20010;-64
2022/07/08 08:09:10;;;;;;;;;;;21.90;47.60;;;;;;5061953;28;19925;-66
2022/07/08 08:11:37;;;;;;;;;;;21.90;47.60;;;;;;5066213;28;19927;-65
2022/07/08 08:14:05;;;;;;;;;;;22.00;47.70;;;;;;5054911;28;20341;-64
2022/07/08 08:16:34;;;;;;;;;;;21.90;47.60;;;;;;5059296;28;19920;-63
2022/07/08 08:19:01;;;;;;;;;;;22.00;47.70;;;;;;5044660;28;19925;-64
2022/07/08 08:21:29;;;;;;;;;;;22.00;47.70;;;;;;5055849;28;20371;-64
2022/07/08 08:23:56;;;;;;;;;;;22.00;47.80;;;;;;5050869;28;19986;-64
2022/07/08 08:26:23;;;;;;;;;;;21.90;47.80;;;;;;5049829;28;19924;-64
2022/07/08 08:28:50;;;;;;;;;;;21.90;47.80;;;;;;5063500;28;19921;-65
2022/07/08 08:31:18;;;;;;;;;;;22.00;47.90;;;;;;5071578;28;20025;-64
2022/07/08 08:33:45;;;;;;;;;;;22.00;48.00;;;;;;5053477;28;20106;-64
2022/07/08 08:36:12;;;;;;;;;;;22.00;48.00;;;;;;5068832;28;20352;-64
2022/07/08 08:38:38;;;;;;;;;;;22.00;48.10;;;;;;5045726;28;19921;-64
2022/07/08 08:41:05;;;;;;;;;;;22.00;48.20;;;;;;5066209;28;20419;-65
2022/07/08 08:43:32;;;;;;;;;;;22.00;48.30;;;;;;5048195;28;19921;-64
2022/07/08 08:45:59;;;;;;;;;;;22.00;48.30;;;;;;5065386;28;19966;-67
2022/07/08 08:48:27;;;;;;;;;;;22.00;48.40;;;;;;5033588;28;20042;-66
2022/07/08 08:50:54;;;;;;;;;;;22.00;48.50;;;;;;5037522;28;19951;-64
2022/07/08 08:53:23;;;;;;;;;;;22.00;48.60;;;;;;5053669;28;19920;-64
2022/07/08 08:55:50;;;;;;;;;;;22.00;48.90;;;;;;5068156;28;20415;-64
2022/07/08 08:58:16;;;;;;;;;;;22.00;48.80;;;;;;5047651;28;19928;-63
2022/07/08 09:00:43;;;;;;;;;;;22.00;48.80;;;;;;5045390;28;19921;-63
2022/07/08 09:03:10;;;;;;;;;;;22.00;48.90;;;;;;5059540;28;19924;-64
2022/07/08 09:05:38;;;;;;;;;;;22.00;48.90;;;;;;5068274;28;19974;-58
2022/07/08 09:08:05;;;;;;;;;;;22.00;48.90;;;;;;5051887;28;19920;-64
2022/07/08 09:10:32;;;;;;;;;;;22.00;48.90;;;;;;5044546;28;19925;-64
2022/07/08 09:13:05;;;;;;;;;;;22.10;49.10;;;;;;5048689;28;19920;-64
2022/07/08 09:15:32;;;;;;;;;;;22.10;49.20;;;;;;5069182;28;19921;-64
2022/07/08 09:18:00;;;;;;;;;;;22.10;49.20;;;;;;5051950;28;19921;-64
2022/07/08 09:20:27;;;;;;;;;;;22.10;49.40;;;;;;5040617;28;19921;-64
2022/07/08 09:22:55;;;;;;;;;;;22.10;49.50;;;;;;5060919;28;19999;-64
2022/07/08 09:25:21;;;;;;;;;;;22.10;49.50;;;;;;5064687;28;19920;-63
2022/07/08 09:27:49;;;;;;;;;;;22.10;49.60;;;;;;5044982;28;19924;-64
2022/07/08 09:30:16;;;;;;;;;;;22.10;49.70;;;;;;5063288;28;19921;-64
2022/07/08 09:32:53;;;;;;;;;;;22.10;49.80;;;;;;5062294;28;19924;-64
2022/07/08 09:35:19;;;;;;;;;;;22.10;49.90;;;;;;5053720;28;19972;-64
2022/07/08 09:37:49;;;;;;;;;;;22.10;50.10;;;;;;5058055;28;19973;-64
2022/07/08 09:40:18;;;;;;;;;;;22.20;50.30;;;;;;5047559;28;20437;-63
2022/07/08 09:42:45;;;;;;;;;;;22.20;50.30;;;;;;5056469;28;20015;-64
2022/07/08 09:45:11;;;;;;;;;;;22.20;50.40;;;;;;5059520;28;19943;-63
2022/07/08 09:47:38;;;;;;;;;;;22.20;50.50;;;;;;5058134;28;19944;-64
2022/07/08 09:50:05;;;;;;;;;;;22.20;50.50;;;;;;5062761;28;19920;-64
2022/07/08 09:52:32;;;;;;;;;;;22.20;50.60;;;;;;5038336;28;19928;-64
2022/07/08 09:54:59;;;;;;;;;;;22.20;50.60;;;;;;5045834;28;19943;-65
2022/07/08 09:57:27;;;;;;;;;;;22.20;50.70;;;;;;5064246;28;20024;-64
2022/07/08 09:59:54;;;;;;;;;;;22.20;50.70;;;;;;5039885;28;19959;-65
2022/07/08 10:02:21;;;;;;;;;;;22.20;50.80;;;;;;5063223;28;19968;-65
2022/07/08 10:04:48;;;;;;;;;;;22.20;51.00;;;;;;5063053;28;20011;-65
2022/07/08 10:07:15;;;;;;;;;;;22.20;51.00;;;;;;5036554;28;19920;-64
2022/07/08 10:09:42;;;;;;;;;;;22.20;51.10;;;;;;5048448;28;19920;-66
2022/07/08 10:12:11;;;;;;;;;;;22.20;51.20;;;;;;5047013;28;19960;-64
2022/07/08 10:14:39;;;;;;;;;;;22.30;51.40;;;;;;5043349;28;19924;-63
2022/07/08 10:17:06;;;;;;;;;;;22.30;51.40;;;;;;5040255;28;19920;-60
2022/07/08 10:19:33;;;;;;;;;;;22.30;51.60;;;;;;5059808;28;20403;-61
2022/07/08 10:22:00;;;;;;;;;;;22.30;51.60;;;;;;5040255;28;19970;-59
2022/07/08 10:24:27;;;;;;;;;;;22.30;51.50;;;;;;5058600;28;19921;-59
2022/07/08 10:26:57;;;;;;;;;;;22.30;51.50;;;;;;5042250;28;19975;-61
2022/07/08 10:29:28;;;;;;;;;;;22.30;51.40;;;;;;5061627;28;20011;-61
2022/07/08 10:31:56;;;;;;;;;;;22.30;51.30;;;;;;5041030;28;20394;-60
2022/07/08 10:34:28;;;;;;;;;;;22.30;51.20;;;;;;5051346;28;19960;-60
2022/07/08 10:36:55;;;;;;;;;;;22.30;51.20;;;;;;5042705;28;19983;-61
2022/07/08 10:39:26;;;;;;;;;;;22.30;51.20;;;;;;5034312;28;20317;-60
2022/07/08 10:41:58;;;;;;;;;;;22.30;51.20;;;;;;5060188;28;19950;-60
2022/07/08 10:44:42;;;;;;;;;;;22.30;51.20;;;;;;5038591;28;20249;-61
2022/07/08 10:47:11;;;;;;;;;;;22.30;51.20;;;;;;5043390;28;19924;-61
2022/07/08 10:49:40;;;;;;;;;;;22.30;51.10;;;;;;5057582;28;19920;-61
2022/07/08 10:52:07;;;;;;;;;;;22.40;51.20;;;;;;5068849;28;19974;-62
2022/07/08 10:54:36;;;;;;;;;;;22.40;51.20;;;;;;5056936;28;20393;-61
2022/07/08 10:57:07;;;;;;;;;;;22.40;51.20;;;;;;5049885;28;19926;-61
2022/07/08 10:59:35;;;;;;;;;;;22.40;51.20;;;;;;5051820;28;19990;-61
2022/07/08 11:02:03;;;;;;;;;;;22.40;51.30;;;;;;5065066;28;20373;-61
2022/07/08 11:04:32;;;;;;;;;;;22.40;51.30;;;;;;5036548;28;20292;-62
2022/07/08 11:07:20;;;;;;;;;;;22.40;51.20;;;;;;5055017;28;20042;-61
2022/07/08 11:09:47;;;;;;;;;;;22.40;51.20;;;;;;5050990;28;19928;-61
2022/07/08 11:12:14;;;;;;;;;;;22.40;51.20;;;;;;5048761;28;19928;-61
2022/07/08 11:14:42;;;;;;;;;;;22.40;51.30;;;;;;5037988;28;19967;-61
2022/07/08 11:17:13;;;;;;;;;;;22.50;51.40;;;;;;5063729;28;19943;-61
2022/07/08 11:19:42;;;;;;;;;;;22.40;51.30;;;;;;5043972;28;20419;-61
2022/07/08 11:22:10;;;;;;;;;;;22.50;51.40;;;;;;5043066;28;19936;-63
2022/07/08 11:24:36;;;;;;;;;;;22.50;51.40;;;;;;5064633;28;20358;-64
2022/07/08 11:27:03;;;;;;;;;;;22.50;51.40;;;;;;5062338;28;20379;-64
2022/07/08 11:29:30;;;;;;;;;;;22.50;51.30;;;;;;5064672;28;19935;-64
2022/07/08 11:31:57;;;;;;;;;;;22.50;51.20;;;;;;5056711;28;19920;-64
2022/07/08 11:34:24;;;;;;;;;;;22.50;51.20;;;;;;5046345;28;19999;-63
2022/07/08 11:36:56;;;;;;;;;;;22.50;51.20;;;;;;5049511;28;19963;-63
2022/07/08 11:39:22;;;;;;;;;;;22.50;51.30;;;;;;5042532;28;19921;-63
2022/07/08 11:41:49;;;;;;;;;;;22.50;51.30;;;;;;5065071;28;20241;-63
2022/07/08 11:44:18;;;;;;;;;;;22.50;51.20;;;;;;5067642;28;19925;-63
2022/07/08 11:46:45;;;;;;;;;;;22.50;51.20;;;;;;5041526;28;19986;-64
2022/07/08 11:49:12;;;;;;;;;;;22.50;51.20;;;;;;5070057;28;19974;-64
2022/07/08 11:51:39;;;;;;;;;;;22.60;51.20;;;;;;5067001;28;19920;-64
2022/07/08 11:54:07;;;;;;;;;;;22.60;51.20;;;;;;5045326;28;20277;-64
2022/07/08 11:56:34;;;;;;;;;;;22.60;51.20;;;;;;5049158;28;19920;-64
2022/07/08 11:59:00;;;;;;;;;;;22.60;51.10;;;;;;5065464;28;19927;-65
2022/07/08 12:01:27;;;;;;;;;;;22.60;51.20;;;;;;5064033;28;19924;-63
2022/07/08 12:03:54;;;;;;;;;;;22.60;51.20;;;;;;5048249;28;19920;-64
2022/07/08 12:06:24;;;;;;;;;;;22.60;51.20;;;;;;5036338;28;19928;-64
2022/07/08 12:08:50;;;;;;;;;;;22.60;51.30;;;;;;5046763;28;19939;-64
2022/07/08 12:11:19;;;;;;;;;;;22.60;51.40;;;;;;5050777;28;20470;-63
2022/07/08 12:13:46;;;;;;;;;;;22.60;51.50;;;;;;5075265;28;19920;-64
2022/07/08 12:16:27;;;;;;;;;;;22.60;51.60;;;;;;5067977;28;20378;-63
2022/07/08 12:18:53;;;;;;;;;;;22.60;51.60;;;;;;5068039;28;20015;-58
2022/07/08 12:21:20;;;;;;;;;;;22.60;51.70;;;;;;5043796;28;19936;-64
2022/07/08 12:23:54;;;;;;;;;;;22.60;51.90;;;;;;5061517;28;19920;-64
2022/07/08 12:26:23;;;;;;;;;;;22.60;51.90;;;;;;5065593;28;19920;-64
2022/07/08 12:28:49;;;;;;;;;;;22.60;51.90;;;;;;5066903;28;20337;-64
2022/07/08 12:31:31;;;;;;;;;;;22.60;51.90;;;;;;5048372;28;19970;-65
2022/07/08 12:34:00;;;;;;;;;;;22.60;51.90;;;;;;5051379;28;19933;-64
2022/07/08 12:36:27;;;;;;;;;;;22.60;51.90;;;;;;5070944;28;19927;-64
2022/07/08 12:38:55;;;;;;;;;;;22.60;51.90;;;;;;5070062;28;19921;-64
2022/07/08 12:41:23;;;;;;;;;;;22.60;51.90;;;;;;5048694;28;19927;-63
2022/07/08 12:43:49;;;;;;;;;;;22.60;51.90;;;;;;5069854;28;20010;-63
2022/07/08 12:46:16;;;;;;;;;;;22.60;51.90;;;;;;5041395;28;20362;-66
2022/07/08 12:48:43;;;;;;;;;;;22.60;51.90;;;;;;5039300;28;20467;-64
2022/07/08 12:51:10;;;;;;;;;;;22.70;51.90;;;;;;5046498;28;19921;-64
2022/07/08 12:53:37;;;;;;;;;;;22.70;51.90;;;;;;5045833;28;19921;-64
2022/07/08 12:56:04;;;;;;;;;;;22.70;51.90;;;;;;5060424;28;19967;-63
2022/07/08 12:58:32;;;;;;;;;;;22.70;51.90;;;;;;5039053;28;19921;-64
2022/07/08 13:00:59;;;;;;;;;;;22.70;51.90;;;;;;5047905;28;19924;-64
2022/07/08 13:03:25;;;;;;;;;;;22.70;51.90;;;;;;5051834;28;19959;-65
2022/07/08 13:05:52;;;;;;;;;;;22.70;51.90;;;;;;5066820;28;20261;-64
2022/07/08 13:08:19;;;;;;;;;;;22.70;51.90;;;;;;5038842;28;20353;-64
2022/07/08 13:10:46;;;;;;;;;;;22.70;51.80;;;;;;5042503;28;20277;-64
2022/07/08 13:13:12;;;;;;;;;;;22.70;51.80;;;;;;5060081;28;19921;-65
2022/07/08 13:15:40;;;;;;;;;;;22.70;51.90;;;;;;5061779;28;19920;-65
2022/07/08 13:18:07;;;;;;;;;;;22.70;51.90;;;;;;5063314;28;20019;-65
2022/07/08 13:20:34;;;;;;;;;;;22.70;51.90;;;;;;5050377;28;19924;-65
2022/07/08 13:23:00;;;;;;;;;;;22.70;51.90;;;;;;5069034;28;20328;-65
2022/07/08 13:25:27;;;;;;;;;;;22.70;51.90;;;;;;5058665;28;19920;-65
2022/07/08 13:27:54;;;;;;;;;;;22.70;51.90;;;;;;5060987;28;20013;-66
2022/07/08 13:30:21;;;;;;;;;;;22.70;51.90;;;;;;5042887;28;19921;-60
2022/07/08 13:32:49;;;;;;;;;;;22.70;51.90;;;;;;5023626;28;19920;-65
2022/07/08 13:35:16;;;;;;;;;;;22.70;51.90;;;;;;5059016;28;19989;-64
2022/07/08 13:37:42;;;;;;;;;;;22.70;51.90;;;;;;5050698;28;20015;-64
2022/07/08 13:40:10;;;;;;;;;;;22.70;51.80;;;;;;5049289;28;19993;-65
2022/07/08 13:42:36;;;;;;;;;;;22.70;51.90;;;;;;5068206;28;19990;-59
2022/07/08 13:45:04;;;;;;;;;;;22.80;51.80;;;;;;5070641;28;19920;-59
2022/07/08 13:47:31;;;;;;;;;;;22.70;51.80;;;;;;5046972;28;19920;-59
2022/07/08 13:49:59;;;;;;;;;;;22.80;51.80;;;;;;5071103;28;19927;-59
2022/07/08 13:52:26;;;;;;;;;;;22.70;51.80;;;;;;5066976;28;19948;-59
2022/07/08 13:54:53;;;;;;;;;;;22.80;51.80;;;;;;5059115;28;19955;-61
2022/07/08 13:57:19;;;;;;;;;;;22.80;51.80;;;;;;5068515;28;19924;-61
2022/07/08 13:59:46;;;;;;;;;;;22.80;51.80;;;;;;5051121;28;20063;-65
2022/07/08 14:02:13;;;;;;;;;;;22.80;51.80;;;;;;5044273;28;19923;-64
2022/07/08 14:04:40;;;;;;;;;;;22.80;51.90;;;;;;5064359;28;20371;-64
2022/07/08 14:07:08;;;;;;;;;;;22.80;51.90;;;;;;5044943;28;19920;-64
2022/07/08 14:09:35;;;;;;;;;;;22.80;52.00;;;;;;5061196;28;19924;-65
2022/07/08 14:12:02;;;;;;;;;;;22.80;52.10;;;;;;5036288;28;19955;-64
2022/07/08 14:14:28;;;;;;;;;;;22.80;52.20;;;;;;5046564;28;19924;-66
2022/07/08 14:16:55;;;;;;;;;;;22.80;52.30;;;;;;5044869;28;20268;-65
2022/07/08 14:19:22;;;;;;;;;;;22.80;52.30;;;;;;5042373;28;19932;-63